Time;durP1;ratioP1;P1;durP2;ratioP2;P2;SDS_P1;SDS_P2;PMS_P1;PMS_P2;Temp;Humidity;BMP_temperature;BMP_pressure;BME280_temperature;BME280_humidity;BME280_pressure;Samples;Min_cycle;Max_cycle;Signal;HPM_P1;HPM_P2
2023/04/12 00:01:48;;;;;;;4.05;3.00;;;23.30;45.90;;;;;;6151800;28;80630;-67
2023/04/12 00:04:54;;;;;;;5.57;4.25;;;23.30;45.90;;;;;;6152566;28;80466;-68
2023/04/12 00:07:54;;;;;;;7.68;3.58;;;23.30;45.90;;;;;;6152204;28;82693;-67
2023/04/12 00:10:55;;;;;;;4.20;3.15;;;23.30;45.90;;;;;;6152920;28;81517;-68
2023/04/12 00:13:56;;;;;;;6.63;3.50;;;23.30;45.90;;;;;;6151897;28;81589;-66
2023/04/12 00:16:56;;;;;;;3.75;2.92;;;23.30;45.80;;;;;;6152199;28;82646;-65
2023/04/12 00:19:57;;;;;;;5.82;3.63;;;23.20;46.00;;;;;;6123402;28;80432;-67
2023/04/12 00:22:58;;;;;;;4.38;3.55;;;23.20;46.00;;;;;;6128352;28;80530;-67
2023/04/12 00:25:58;;;;;;;7.13;3.30;;;23.20;45.90;;;;;;6126311;28;80886;-67
2023/04/12 00:28:59;;;;;;;5.47;3.85;;;23.30;46.00;;;;;;6127466;28;81165;-67
2023/04/12 00:32:00;;;;;;;6.97;3.72;;;23.20;45.90;;;;;;6126375;28;83191;-64
2023/04/12 00:35:01;;;;;;;5.60;3.42;;;23.30;46.00;;;;;;6127466;28;81985;-64
2023/04/12 00:38:09;;;;;;;5.68;3.85;;;23.30;46.00;;;;;;6127757;28;81416;-66
2023/04/12 00:41:10;;;;;;;6.25;4.38;;;23.30;46.00;;;;;;6126791;28;81021;-67
2023/04/12 00:44:11;;;;;;;4.28;3.47;;;23.20;45.90;;;;;;6126513;28;80999;-67
2023/04/12 00:47:12;;;;;;;6.47;3.90;;;23.20;46.00;;;;;;6125636;28;80401;-63
2023/04/12 00:50:12;;;;;;;6.45;3.83;;;23.20;46.10;;;;;;6124622;28;83635;-62
2023/04/12 00:53:13;;;;;;;4.97;3.53;;;23.20;46.00;;;;;;6127301;28;80344;-62
2023/04/12 00:56:14;;;;;;;6.32;3.80;;;23.20;45.90;;;;;;6108179;28;84588;-62
2023/04/12 00:59:14;;;;;;;6.43;3.70;;;23.20;45.90;;;;;;6121743;28;80938;-64
2023/04/12 01:02:16;;;;;;;5.78;3.58;;;23.20;45.80;;;;;;6127029;28;83370;-62
2023/04/12 01:05:20;;;;;;;5.78;4.15;;;23.30;45.80;;;;;;6126015;28;81512;-63
2023/04/12 01:08:21;;;;;;;5.75;3.85;;;23.30;45.80;;;;;;6125236;28;82264;-63
2023/04/12 01:11:22;;;;;;;5.45;3.78;;;23.30;45.80;;;;;;6126061;28;80772;-63
2023/04/12 01:14:22;;;;;;;5.07;3.80;;;23.30;45.70;;;;;;6122395;28;82399;-62
2023/04/12 01:17:23;;;;;;;5.63;3.95;;;23.30;45.70;;;;;;6121845;28;81633;-61
2023/04/12 01:20:24;;;;;;;6.40;4.43;;;23.30;45.60;;;;;;6123725;28;80491;-60
2023/04/12 01:23:25;;;;;;;7.22;4.60;;;23.20;45.70;;;;;;6121675;28;81211;-62
2023/04/12 01:26:25;;;;;;;6.25;4.10;;;23.20;45.70;;;;;;6123587;28;82101;-65
2023/04/12 01:29:27;;;;;;;6.90;4.40;;;23.20;45.80;;;;;;6125252;28;83752;-68
2023/04/12 01:32:28;;;;;;;6.80;3.63;;;23.20;45.80;;;;;;6119328;28;84313;-65
2023/04/12 01:35:28;;;;;;;5.43;3.63;;;23.20;45.80;;;;;;6126200;28;83100;-68
2023/04/12 01:38:29;;;;;;;6.13;4.05;;;23.20;45.70;;;;;;6122449;28;81530;-67
2023/04/12 01:41:29;;;;;;;6.30;3.88;;;23.20;45.70;;;;;;6124057;28;80194;-67
2023/04/12 01:44:30;;;;;;;6.28;3.67;;;23.20;45.60;;;;;;6120782;28;86422;-63
2023/04/12 01:47:30;;;;;;;6.63;4.10;;;23.20;46.00;;;;;;6122653;28;83158;-62
2023/04/12 01:50:31;;;;;;;6.05;4.10;;;23.20;45.70;;;;;;6123303;28;80706;-62
2023/04/12 01:53:32;;;;;;;5.82;4.05;;;23.10;45.50;;;;;;6125928;28;81365;-63
2023/04/12 01:56:33;;;;;;;5.30;3.85;;;23.20;45.60;;;;;;6126075;28;81429;-63
2023/04/12 01:59:34;;;;;;;9.65;4.07;;;23.10;45.70;;;;;;6125308;28;89524;-64
2023/04/12 02:02:38;;;;;;;5.30;3.90;;;23.10;45.70;;;;;;6129364;28;81739;-62
2023/04/12 02:05:39;;;;;;;6.82;4.00;;;23.10;45.70;;;;;;6129147;28;83241;-60
2023/04/12 02:08:39;;;;;;;5.20;3.70;;;23.10;45.70;;;;;;6130516;28;82225;-61
2023/04/12 02:11:42;;;;;;;6.25;4.05;;;23.10;45.60;;;;;;6129186;28;81888;-62
2023/04/12 02:14:43;;;;;;;5.57;3.60;;;23.00;45.60;;;;;;6128602;28;81637;-60
2023/04/12 02:17:45;;;;;;;5.45;3.72;;;23.10;45.60;;;;;;6129711;28;82842;-61
2023/04/12 02:20:45;;;;;;;6.50;3.92;;;23.10;45.70;;;;;;6129559;28;81920;-63
2023/04/12 02:23:46;;;;;;;6.03;3.63;;;23.10;45.60;;;;;;6128670;28;80743;-66
2023/04/12 02:26:48;;;;;;;6.50;3.58;;;23.10;45.70;;;;;;6129919;28;80635;-73
2023/04/12 02:29:49;;;;;;;4.80;3.60;;;23.10;45.60;;;;;;6113881;28;86361;-64
2023/04/12 02:32:52;;;;;;;5.70;3.80;;;23.10;45.60;;;;;;6128620;28;81541;-63
2023/04/12 02:36:06;;;;;;;5.63;3.72;;;23.10;45.50;;;;;;6128647;28;82187;-66
2023/04/12 02:39:07;;;;;;;4.22;3.05;;;23.20;45.60;;;;;;6128309;28;83448;-66
2023/04/12 02:42:09;;;;;;;5.80;3.80;;;23.10;45.50;;;;;;6127883;28;83311;-65
2023/04/12 02:45:10;;;;;;;6.20;3.40;;;23.10;45.60;;;;;;6128326;28;82794;-66
2023/04/12 02:48:11;;;;;;;5.18;3.28;;;23.10;45.60;;;;;;6123941;28;83091;-67
2023/04/12 02:51:12;;;;;;;4.60;3.22;;;23.20;45.50;;;;;;6112615;28;83285;-68
2023/04/12 02:54:15;;;;;;;4.35;3.00;;;23.20;45.50;;;;;;6128308;28;81789;-67
2023/04/12 02:57:28;;;;;;;5.50;3.72;;;23.20;45.50;;;;;;6128538;28;82970;-68
2023/04/12 03:00:28;;;;;;;5.30;3.45;;;23.10;45.40;;;;;;6121076;28;80520;-68
2023/04/12 03:03:33;;;;;;;5.13;3.33;;;23.20;45.40;;;;;;6121815;28;83714;-67
2023/04/12 03:06:52;;;;;;;5.07;3.88;;;23.20;45.40;;;;;;6123851;28;80550;-67
2023/04/12 03:09:57;;;;;;;4.80;3.30;;;23.20;45.40;;;;;;6123981;28;83165;-66
2023/04/12 03:12:59;;;;;;;4.28;2.97;;;23.20;45.40;;;;;;6127108;28;83610;-67
2023/04/12 03:16:07;;;;;;;4.32;3.17;;;23.20;45.50;;;;;;6128472;28;81657;-62
2023/04/12 03:19:09;;;;;;;5.72;3.60;;;23.20;45.50;;;;;;6127784;28;83462;-63
2023/04/12 03:22:10;;;;;;;5.07;3.47;;;23.20;45.50;;;;;;6128595;28;81276;-63
2023/04/12 03:25:14;;;;;;;5.60;3.92;;;23.20;45.30;;;;;;6126551;28;82376;-63
2023/04/12 03:28:22;;;;;;;5.00;3.10;;;23.20;45.20;;;;;;6126581;28;81417;-62
2023/04/12 03:31:26;;;;;;;4.60;3.08;;;23.30;45.00;;;;;;6126494;28;83265;-61
2023/04/12 03:34:31;;;;;;;5.50;3.22;;;23.30;44.90;;;;;;6128174;28;82334;-68
2023/04/12 03:37:36;;;;;;;5.38;3.15;;;23.30;44.90;;;;;;6125781;28;81492;-70
2023/04/12 03:40:37;;;;;;;5.18;3.38;;;23.40;44.80;;;;;;6141619;28;83539;-67
2023/04/12 03:43:39;;;;;;;7.68;4.00;;;23.40;44.80;;;;;;6125844;28;83244;-65
2023/04/12 03:46:49;;;;;;;5.65;3.63;;;23.40;44.70;;;;;;6130653;28;83107;-74
2023/04/12 03:49:53;;;;;;;5.90;3.72;;;23.40;44.60;;;;;;6151003;28;82840;-67
2023/04/12 03:52:55;;;;;;;5.35;3.13;;;23.40;44.80;;;;;;6152550;28;81852;-65
2023/04/12 03:56:00;;;;;;;6.18;3.50;;;23.50;44.80;;;;;;6152353;28;83630;-68
2023/04/12 03:59:06;;;;;;;8.13;3.40;;;23.50;44.50;;;;;;6128174;28;87466;-61
2023/04/12 04:02:07;;;;;;;5.65;3.63;;;23.50;44.40;;;;;;6149015;28;83185;-61
2023/04/12 04:05:13;;;;;;;5.38;3.58;;;23.50;44.30;;;;;;6138814;28;81743;-61
2023/04/12 04:08:13;;;;;;;5.95;3.63;;;23.50;44.10;;;;;;6150544;28;83338;-59
2023/04/12 04:11:27;;;;;;;6.65;3.33;;;23.60;44.10;;;;;;6151420;28;83863;-67
2023/04/12 04:14:36;;;;;;;5.50;3.45;;;23.60;43.80;;;;;;6127220;28;85894;-66
2023/04/12 04:17:39;;;;;;;4.90;4.05;;;23.60;43.80;;;;;;6148370;28;80468;-69
2023/04/12 04:20:40;;;;;;;7.22;3.97;;;23.60;43.60;;;;;;6151259;28;83323;-68
2023/04/12 04:23:43;;;;;;;4.43;3.70;;;23.60;43.50;;;;;;6150465;28;81482;-67
2023/04/12 04:26:44;;;;;;;4.97;3.47;;;23.60;43.50;;;;;;6145760;28;82834;-68
2023/04/12 04:29:58;;;;;;;5.18;3.70;;;23.60;43.50;;;;;;6151245;28;82998;-70
2023/04/12 04:32:59;;;;;;;3.63;3.10;;;23.60;43.60;;;;;;6151168;28;83423;-65
2023/04/12 04:36:00;;;;;;;4.32;3.30;;;23.60;43.60;;;;;;6145790;28;81874;-67
2023/04/12 04:39:04;;;;;;;6.65;4.00;;;23.60;43.60;;;;;;6147887;28;83902;-64
2023/04/12 04:42:14;;;;;;;8.75;3.90;;;23.60;43.80;;;;;;6144380;28;81301;-62
2023/04/12 04:45:31;;;;;;;4.18;3.08;;;23.60;43.90;;;;;;6135509;28;82984;-65
2023/04/12 04:48:31;;;;;;;5.47;3.22;;;23.60;43.90;;;;;;6121578;28;82264;-60
2023/04/12 04:51:32;;;;;;;6.68;3.30;;;23.60;43.90;;;;;;6145477;28;81132;-61
2023/04/12 04:54:35;;;;;;;3.95;2.95;;;23.60;43.80;;;;;;6116860;28;82699;-59
2023/04/12 04:57:36;;;;;;;20.42;3.85;;;23.60;43.70;;;;;;6109592;28;82142;-59
2023/04/12 05:00:37;;;;;;;9.68;2.88;;;23.60;43.70;;;;;;6117370;28;80519;-60
2023/04/12 05:03:39;;;;;;;4.40;3.10;;;23.60;44.20;;;;;;6128308;28;85293;-60
2023/04/12 05:06:41;;;;;;;8.18;3.03;;;23.60;44.70;;;;;;6125912;28;80488;-62
2023/04/12 05:09:43;;;;;;;5.28;2.60;;;23.60;45.70;;;;;;6134096;28;86672;-62
2023/04/12 05:12:44;;;;;;;5.78;2.97;;;23.60;45.00;;;;;;6125669;28;83143;-62
2023/04/12 05:15:47;;;;;;;2.97;2.25;;;23.60;44.80;;;;;;6135459;28;83859;-63
2023/04/12 05:18:48;;;;;;;6.68;2.90;;;23.60;45.00;;;;;;6118901;28;83439;-63
2023/04/12 05:21:48;;;;;;;5.85;2.65;;;23.60;44.80;;;;;;6118501;28;81842;-60
2023/04/12 05:24:49;;;;;;;8.18;2.50;;;23.50;44.90;;;;;;6119039;28;82828;-62
2023/04/12 05:27:50;;;;;;;5.03;2.75;;;23.50;45.00;;;;;;6117204;28;82965;-61
2023/04/12 05:30:51;;;;;;;6.18;3.17;;;23.40;45.00;;;;;;6128296;28;82788;-61
2023/04/12 05:33:56;;;;;;;14.15;3.10;;;23.40;45.20;;;;;;6141452;28;84092;-61
2023/04/12 05:37:01;;;;;;;4.63;2.30;;;23.40;44.50;;;;;;6130687;28;83575;-60
2023/04/12 05:40:08;;;;;;;2.65;2.10;;;23.40;44.50;;;;;;6137832;28;82821;-61
2023/04/12 05:43:11;;;;;;;5.38;2.50;;;23.40;44.50;;;;;;6138177;28;80797;-61
2023/04/12 05:46:13;;;;;;;5.57;2.53;;;23.40;44.40;;;;;;6150288;28;82166;-64
2023/04/12 05:49:15;;;;;;;3.45;2.25;;;23.40;44.40;;;;;;6140425;28;88091;-63
2023/04/12 05:52:15;;;;;;;8.30;2.58;;;23.40;44.30;;;;;;6154529;28;84855;-64
2023/04/12 05:55:17;;;;;;;7.43;2.38;;;23.30;44.10;;;;;;6135211;28;83088;-64
2023/04/12 05:58:18;;;;;;;4.78;2.38;;;23.40;44.30;;;;;;6101567;28;83390;-60
2023/04/12 06:01:20;;;;;;;4.82;2.13;;;23.30;44.60;;;;;;6123441;28;83011;-60
2023/04/12 06:04:20;;;;;;;4.47;2.72;;;23.30;44.70;;;;;;6134094;28;83373;-58
2023/04/12 06:07:21;;;;;;;8.18;2.85;;;23.30;44.70;;;;;;6149538;28;83434;-59
2023/04/12 06:10:21;;;;;;;4.85;2.72;;;23.30;44.70;;;;;;6148724;28;82047;-59
2023/04/12 06:13:25;;;;;;;6.63;2.95;;;23.30;44.60;;;;;;6144852;28;82723;-60
2023/04/12 06:16:26;;;;;;;7.68;3.17;;;23.30;44.50;;;;;;6165399;28;81649;-55
2023/04/12 06:19:27;;;;;;;8.75;2.83;;;23.20;44.50;;;;;;6166178;28;85991;-57
2023/04/12 06:22:27;;;;;;;4.55;2.58;;;23.30;44.60;;;;;;6162324;28;83355;-57
2023/04/12 06:25:28;;;;;;;8.60;2.92;;;23.20;44.60;;;;;;6140138;28;84148;-58
2023/04/12 06:28:30;;;;;;;3.92;2.67;;;23.20;44.50;;;;;;6125365;28;83507;-58
2023/04/12 06:31:31;;;;;;;6.32;2.60;;;23.30;44.40;;;;;;6135035;28;82852;-58
2023/04/12 06:34:32;;;;;;;4.90;3.03;;;23.30;44.20;;;;;;6130169;28;83847;-54
2023/04/12 06:37:36;;;;;;;6.05;3.10;;;23.20;44.30;;;;;;6114726;28;83163;-61
2023/04/12 06:40:36;;;;;;;9.20;4.13;;;23.20;44.40;;;;;;6139656;28;80759;-59
2023/04/12 06:43:37;;;;;;;5.50;3.25;;;23.20;44.00;;;;;;6139925;28;81109;-63
2023/04/12 06:46:37;;;;;;;7.25;2.83;;;23.30;44.10;;;;;;6136816;28;86761;-62
2023/04/12 06:49:38;;;;;;;5.20;3.20;;;23.30;44.00;;;;;;6136071;28;80546;-60
2023/04/12 06:52:38;;;;;;;5.47;3.10;;;23.30;44.30;;;;;;6141501;28;80508;-61
2023/04/12 06:55:39;;;;;;;6.18;3.17;;;23.20;44.30;;;;;;6131818;28;80550;-57
2023/04/12 06:58:40;;;;;;;7.05;3.00;;;23.30;45.00;;;;;;6133305;28;80320;-58
2023/04/12 07:01:40;;;;;;;5.15;2.83;;;23.30;44.10;;;;;;6130090;28;80552;-59
2023/04/12 07:04:41;;;;;;;3.90;3.22;;;23.30;44.10;;;;;;6123747;28;80313;-60
2023/04/12 07:07:41;;;;;;;9.95;2.80;;;23.30;44.10;;;;;;6131567;28;80978;-59
2023/04/12 07:10:42;;;;;;;7.93;3.30;;;23.30;44.40;;;;;;6127096;28;82852;-58
2023/04/12 07:13:42;;;;;;;4.82;3.10;;;23.30;44.70;;;;;;6142725;28;81287;-58
2023/04/12 07:16:43;;;;;;;5.88;3.33;;;23.30;44.80;;;;;;6145836;28;81911;-62
2023/04/12 07:19:43;;;;;;;5.40;3.17;;;23.30;44.70;;;;;;6141732;28;83260;-64
2023/04/12 07:22:44;;;;;;;13.55;3.30;;;23.30;44.90;;;;;;6149563;28;80540;-60
2023/04/12 07:25:45;;;;;;;10.00;3.35;;;23.30;45.00;;;;;;6144767;28;80819;-61
2023/04/12 07:28:45;;;;;;;11.98;2.85;;;23.30;45.10;;;;;;6147248;28;82465;-62
2023/04/12 07:31:46;;;;;;;10.35;3.30;;;23.30;45.20;;;;;;6146533;28;80809;-61
2023/04/12 07:34:47;;;;;;;8.20;3.63;;;23.30;45.50;;;;;;6145315;28;80783;-60
2023/04/12 07:37:47;;;;;;;10.27;3.17;;;23.40;45.70;;;;;;6143663;28;85508;-65
2023/04/12 07:40:48;;;;;;;8.85;3.30;;;23.30;45.40;;;;;;6148080;28;83355;-65
2023/04/12 07:43:48;;;;;;;9.15;3.30;;;23.40;45.50;;;;;;6146832;28;85632;-62
2023/04/12 07:46:49;;;;;;;9.70;3.17;;;23.40;45.20;;;;;;6144724;28;80289;-68
2023/04/12 07:49:50;;;;;;;12.45;3.45;;;23.40;45.10;;;;;;6144609;28;82485;-64
2023/04/12 07:52:50;;;;;;;5.60;3.28;;;23.40;45.00;;;;;;6146645;28;80405;-61
2023/04/12 07:55:51;;;;;;;11.93;4.63;;;23.40;44.80;;;;;;6144744;28;80829;-61
2023/04/12 07:58:51;;;;;;;8.95;4.20;;;23.50;44.50;;;;;;6162118;28;82379;-61
2023/04/12 08:01:52;;;;;;;6.55;3.42;;;23.50;44.10;;;;;;6144797;28;81562;-61
2023/04/12 08:04:52;;;;;;;4.72;3.08;;;23.50;43.90;;;;;;6148413;28;80793;-62
2023/04/12 08:07:53;;;;;;;8.32;3.22;;;23.50;43.70;;;;;;6142897;28;86457;-60
2023/04/12 08:10:54;;;;;;;7.18;3.42;;;23.50;43.70;;;;;;6142867;28;80305;-66
2023/04/12 08:13:54;;;;;;;7.90;3.55;;;23.50;43.70;;;;;;6125438;28;81304;-65
2023/04/12 08:16:55;;;;;;;13.60;3.28;;;23.60;43.90;;;;;;6143503;28;81063;-66
2023/04/12 08:19:55;;;;;;;10.00;3.50;;;23.60;44.50;;;;;;6149649;28;80922;-65
2023/04/12 08:22:56;;;;;;;7.85;3.13;;;23.60;43.70;;;;;;6147146;28;82325;-65
2023/04/12 08:26:02;;;;;;;6.95;3.55;;;23.60;43.50;;;;;;6146043;28;83132;-68
2023/04/12 08:29:02;;;;;;;;;;;23.60;43.50;;;;;;6159120;28;81739;-56
2023/04/12 08:32:04;;;;;;;9.23;3.58;;;23.60;43.40;;;;;;6153089;28;80236;-58
2023/04/12 08:35:04;;;;;;;6.80;3.50;;;23.70;43.40;;;;;;6149289;28;82073;-59
2023/04/12 08:38:06;;;;;;;9.60;3.45;;;23.70;43.50;;;;;;6147958;28;82819;-60
2023/04/12 08:41:07;;;;;;;12.07;4.22;;;23.70;43.60;;;;;;6147847;28;84811;-62
2023/04/12 08:44:07;;;;;;;5.13;3.22;;;23.70;43.60;;;;;;6147927;28;80233;-60
2023/04/12 08:47:08;;;;;;;6.07;3.53;;;23.70;43.40;;;;;;6144923;28;80474;-54
2023/04/12 08:50:09;;;;;;;8.27;3.47;;;23.70;43.50;;;;;;6147734;28;80627;-59
2023/04/12 08:53:09;;;;;;;10.50;3.70;;;23.70;43.60;;;;;;6147328;28;81172;-59
2023/04/12 08:56:10;;;;;;;7.53;3.92;;;23.70;43.60;;;;;;6103102;28;83568;-71
2023/04/12 08:59:11;;;;;;;7.03;3.28;;;23.70;43.90;;;;;;6135727;28;82810;-60
2023/04/12 09:02:11;;;;;;;6.78;3.70;;;23.80;44.50;;;;;;6120892;28;80641;-55
2023/04/12 09:05:13;;;;;;;6.32;3.80;;;23.80;45.10;;;;;;6121565;28;82810;-59
2023/04/12 09:08:15;;;;;;;8.98;4.20;;;23.80;46.50;;;;;;6126595;28;80653;-60
2023/04/12 09:11:16;;;;;;;6.43;3.47;;;23.80;47.00;;;;;;6136042;28;85814;-55
2023/04/12 09:14:17;;;;;;;16.38;3.95;;;23.90;47.70;;;;;;6128497;28;83532;-59
2023/04/12 09:17:17;;;;;;;12.80;4.07;;;23.90;48.00;;;;;;6120490;28;84757;-52
2023/04/12 09:20:18;;;;;;;13.98;4.45;;;23.80;47.20;;;;;;6097744;28;84598;-59
2023/04/12 09:23:18;;;;;;;9.90;4.45;;;23.70;47.20;;;;;;6134257;28;80652;-58
2023/04/12 09:26:19;;;;;;;8.35;4.40;;;23.60;46.30;;;;;;6131855;28;80977;-59
2023/04/12 09:29:20;;;;;;;8.30;4.40;;;23.60;46.80;;;;;;6129529;28;81109;-56
2023/04/12 09:32:20;;;;;;;12.00;5.28;;;23.50;46.00;;;;;;6133856;28;80753;-60
2023/04/12 09:35:21;;;;;;;10.73;5.00;;;23.50;46.20;;;;;;6133193;28;84492;-61
2023/04/12 09:38:21;;;;;;;8.45;4.82;;;23.40;45.80;;;;;;6130179;28;81917;-60
2023/04/12 09:41:23;;;;;;;10.20;4.75;;;23.40;45.60;;;;;;6130515;28;81557;-60
2023/04/12 09:44:23;;;;;;;10.20;4.95;;;23.40;45.60;;;;;;6130066;28;81889;-59
2023/04/12 09:47:24;;;;;;;8.98;4.35;;;23.40;46.70;;;;;;6135388;28;80221;-59
2023/04/12 09:50:25;;;;;;;9.77;4.85;;;23.40;46.00;;;;;;6134601;28;80450;-60
2023/04/12 09:53:25;;;;;;;8.85;4.35;;;23.30;45.90;;;;;;6139742;28;81402;-59
2023/04/12 09:56:26;;;;;;;8.57;4.20;;;23.30;45.60;;;;;;6114596;28;82719;-60
2023/04/12 09:59:27;;;;;;;7.13;4.55;;;23.40;46.40;;;;;;6112545;28;81902;-61
2023/04/12 10:02:27;;;;;;;9.10;4.70;;;23.40;47.10;;;;;;6125251;28;83227;-61
2023/04/12 10:05:28;;;;;;;7.13;4.50;;;23.50;46.90;;;;;;6123688;28;85511;-61
2023/04/12 10:08:30;;;;;;;12.80;5.18;;;23.50;46.90;;;;;;6141643;28;86117;-61
2023/04/12 10:11:32;;;;;;;8.43;4.50;;;23.50;46.90;;;;;;6124678;28;82707;-61
2023/04/12 10:14:33;;;;;;;8.20;4.53;;;23.50;46.40;;;;;;6141228;28;82279;-61
2023/04/12 10:17:33;;;;;;;8.88;4.35;;;23.50;46.70;;;;;;6065583;28;87976;-62
2023/04/12 10:20:34;;;;;;;9.70;4.50;;;23.50;46.70;;;;;;6149513;28;86989;-61
2023/04/12 10:23:37;;;;;;;15.55;4.13;;;23.50;46.70;;;;;;6140659;28;83511;-61
2023/04/12 10:26:38;;;;;;;9.45;4.47;;;23.50;47.50;;;;;;6151019;28;81609;-60
2023/04/12 10:29:40;;;;;;;6.38;4.03;;;23.40;46.90;;;;;;6150050;28;82402;-61
2023/04/12 10:32:41;;;;;;;5.75;3.70;;;23.40;47.20;;;;;;6150716;28;81654;-63
2023/04/12 10:35:41;;;;;;;7.90;4.43;;;23.40;47.40;;;;;;6137372;28;81723;-60
2023/04/12 10:38:42;;;;;;;9.05;4.43;;;23.30;47.10;;;;;;6150561;28;80870;-61
2023/04/12 10:41:45;;;;;;;13.82;5.68;;;23.30;47.30;;;;;;6148795;28;82814;-62
2023/04/12 10:44:45;;;;;;;11.15;4.65;;;23.30;47.90;;;;;;6150353;28;80186;-61
2023/04/12 10:47:46;;;;;;;10.13;4.47;;;23.20;47.40;;;;;;6147708;28;87100;-60
2023/04/12 10:50:46;;;;;;;12.38;4.10;;;23.20;47.80;;;;;;6149641;28;82966;-60
2023/04/12 10:53:47;;;;;;;170.35;35.63;;;23.20;47.60;;;;;;6150246;28;80832;-60
2023/04/12 10:56:56;;;;;;;348.35;76.88;;;23.10;48.30;;;;;;6145445;28;84968;-64
2023/04/12 11:00:06;;;;;;;311.92;70.25;;;23.10;48.60;;;;;;6142311;28;86058;-63
2023/04/12 11:03:10;;;;;;;240.07;62.53;;;23.10;48.60;;;;;;6137703;28;84734;-62
2023/04/12 11:06:11;;;;;;;229.20;55.35;;;23.10;48.00;;;;;;6122915;28;83903;-61
2023/04/12 11:09:30;;;;;;;176.68;46.88;;;23.10;47.70;;;;;;6144597;28;91122;-62
2023/04/12 11:12:31;;;;;;;167.93;41.67;;;23.10;47.10;;;;;;6143778;28;82871;-62
2023/04/12 11:15:33;;;;;;;152.45;39.17;;;23.00;47.10;;;;;;6145544;28;89101;-62
2023/04/12 11:18:34;;;;;;;112.68;32.72;;;23.00;46.90;;;;;;6127715;28;82992;-63
2023/04/12 11:21:34;;;;;;;110.53;28.83;;;23.00;47.10;;;;;;6118862;28;86556;-60
2023/04/12 11:24:35;;;;;;;103.03;25.20;;;23.00;47.40;;;;;;6114072;28;86458;-62
2023/04/12 11:27:36;;;;;;;84.82;22.70;;;23.00;47.10;;;;;;6053122;28;85198;-61
2023/04/12 11:30:38;;;;;;;84.05;21.70;;;23.00;47.20;;;;;;6005656;28;86267;-61
2023/04/12 11:33:39;;;;;;;69.00;19.67;;;22.90;46.50;;;;;;5476614;28;85958;-61
2023/04/12 11:36:44;;;;;;;64.90;16.42;;;23.00;46.40;;;;;;5495757;28;85793;-62
2023/04/12 11:39:45;;;;;;;51.55;16.23;;;23.00;46.50;;;;;;5488817;28;86516;-61
2023/04/12 11:42:46;;;;;;;52.30;14.63;;;23.00;46.40;;;;;;5490429;28;87121;-61
2023/04/12 11:45:48;;;;;;;45.55;13.30;;;23.10;46.20;;;;;;5486352;28;87802;-59
2023/04/12 11:48:52;;;;;;;38.53;11.27;;;23.10;45.90;;;;;;5493468;28;87941;-61
2023/04/12 11:51:54;;;;;;;30.83;10.43;;;23.10;45.70;;;;;;5485482;28;85930;-59
2023/04/12 11:54:57;;;;;;;33.75;10.20;;;23.10;45.30;;;;;;5498307;28;86324;-60
2023/04/12 11:57:59;;;;;;;29.33;9.85;;;23.10;45.00;;;;;;5492942;28;86812;-61
2023/04/12 12:01:02;;;;;;;29.60;9.20;;;23.20;44.80;;;;;;5495035;28;86107;-61
2023/04/12 12:04:04;;;;;;;24.35;8.80;;;23.20;44.30;;;;;;5492772;28;83129;-60
2023/04/12 12:07:05;;;;;;;19.35;8.15;;;23.10;44.90;;;;;;5494529;28;84143;-60
2023/04/12 12:10:07;;;;;;;24.63;8.43;;;23.20;45.20;;;;;;5482005;28;83258;-60
2023/04/12 12:13:11;;;;;;;20.95;7.13;;;23.20;44.70;;;;;;5484590;28;83576;-61
2023/04/12 12:16:12;;;;;;;16.60;6.38;;;23.20;44.40;;;;;;5475295;28;83252;-61
2023/04/12 12:19:13;;;;;;;19.75;6.57;;;23.20;44.30;;;;;;5479408;28;84060;-62
2023/04/12 12:22:14;;;;;;;16.80;5.68;;;23.20;44.20;;;;;;5485346;28;83516;-62
2023/04/12 12:25:16;;;;;;;13.77;5.57;;;23.30;44.20;;;;;;5475813;28;83890;-61
2023/04/12 12:28:26;;;;;;;13.93;5.80;;;23.30;44.30;;;;;;5504243;28;83431;-63
2023/04/12 12:31:27;;;;;;;16.50;4.97;;;23.30;43.90;;;;;;6133041;28;82688;-60
2023/04/12 12:34:27;;;;;;;16.58;5.50;;;23.20;44.20;;;;;;6131440;28;80477;-62
2023/04/12 12:37:28;;;;;;;9.73;4.85;;;23.20;44.80;;;;;;6123032;28;80073;-60
2023/04/12 12:40:30;;;;;;;11.77;4.28;;;23.10;44.60;;;;;;6138695;28;80421;-61
2023/04/12 12:43:31;;;;;;;7.78;4.03;;;23.00;43.90;;;;;;6129198;28;83407;-62
2023/04/12 12:46:32;;;;;;;8.30;3.72;;;23.00;43.60;;;;;;6139149;28;82771;-61
2023/04/12 12:49:32;;;;;;;7.00;3.95;;;23.00;42.90;;;;;;6149264;28;85305;-63
2023/04/12 12:52:33;;;;;;;9.02;3.88;;;22.90;42.90;;;;;;6150400;28;80227;-61
2023/04/12 12:55:33;;;;;;;8.18;3.88;;;22.90;42.70;;;;;;6152275;28;82724;-61
2023/04/12 12:58:34;;;;;;;7.43;3.72;;;22.80;42.70;;;;;;6150622;28;80693;-62
2023/04/12 13:01:35;;;;;;;7.68;3.38;;;22.80;42.60;;;;;;6152080;28;80420;-63
2023/04/12 13:04:35;;;;;;;6.70;3.53;;;22.80;42.90;;;;;;6151340;28;80269;-62
2023/04/12 13:07:36;;;;;;;8.70;3.10;;;22.80;42.50;;;;;;6151819;28;80978;-61
2023/04/12 13:10:36;;;;;;;6.93;3.70;;;22.80;42.90;;;;;;6152026;28;80501;-62
2023/04/12 13:13:37;;;;;;;4.82;3.15;;;22.80;42.90;;;;;;6150734;28;81067;-61
2023/04/12 13:16:37;;;;;;;6.63;3.22;;;22.70;42.70;;;;;;6151759;28;80517;-62
2023/04/12 13:19:39;;;;;;;5.22;3.42;;;22.70;42.50;;;;;;6151628;28;82068;-61
2023/04/12 13:22:40;;;;;;;5.00;3.40;;;22.70;42.30;;;;;;6151308;28;80416;-60
2023/04/12 13:25:40;;;;;;;4.75;3.17;;;22.70;42.50;;;;;;6152036;28;80510;-60
2023/04/12 13:28:41;;;;;;;8.45;3.30;;;22.70;42.40;;;;;;6152012;28;80758;-60
2023/04/12 13:31:41;;;;;;;5.97;3.10;;;22.60;42.60;;;;;;6150946;28;80528;-60
2023/04/12 13:34:42;;;;;;;7.40;3.17;;;22.60;42.40;;;;;;6151390;28;80401;-60
2023/04/12 13:37:42;;;;;;;5.15;2.92;;;22.60;42.50;;;;;;6141919;28;83576;-59
2023/04/12 13:40:43;;;;;;;5.97;3.45;;;22.60;42.80;;;;;;6145176;28;80723;-61
2023/04/12 13:43:43;;;;;;;6.38;3.40;;;22.60;42.70;;;;;;6150888;28;81173;-62
2023/04/12 13:46:44;;;;;;;7.78;3.38;;;22.60;42.30;;;;;;6150930;28;81575;-62
2023/04/12 13:49:44;;;;;;;7.90;3.28;;;22.60;42.50;;;;;;6151500;28;80424;-62
2023/04/12 13:52:45;;;;;;;5.13;3.35;;;22.60;42.60;;;;;;6150993;28;80577;-62
2023/04/12 13:55:48;;;;;;;6.75;4.05;;;22.60;42.80;;;;;;6155001;28;80311;-62
2023/04/12 13:58:49;;;;;;;5.45;3.03;;;22.50;42.40;;;;;;6153262;28;81124;-60
2023/04/12 14:01:50;;;;;;;5.65;3.33;;;22.50;42.40;;;;;;6154519;28;80841;-60
2023/04/12 14:04:51;;;;;;;6.57;3.05;;;22.50;43.00;;;;;;6155271;28;80442;-61
2023/04/12 14:07:52;;;;;;;8.02;3.28;;;22.50;42.40;;;;;;6155025;28;81932;-60
2023/04/12 14:10:55;;;;;;;5.47;3.40;;;22.50;42.20;;;;;;6153831;28;80932;-60
2023/04/12 14:13:56;;;;;;;8.60;3.28;;;22.40;42.30;;;;;;6136700;28;81562;-60
2023/04/12 14:16:56;;;;;;;6.80;3.70;;;22.40;42.40;;;;;;6154791;28;80175;-61
2023/04/12 14:19:57;;;;;;;5.78;3.40;;;22.40;42.30;;;;;;6124934;28;80526;-60
2023/04/12 14:22:57;;;;;;;9.13;3.47;;;22.40;42.30;;;;;;6130669;28;80388;-62
2023/04/12 14:25:58;;;;;;;5.88;3.20;;;22.40;42.50;;;;;;6125268;28;81672;-60
2023/04/12 14:28:59;;;;;;;10.65;3.15;;;22.50;42.70;;;;;;6125702;28;82187;-62
2023/04/12 14:31:59;;;;;;;8.40;3.15;;;22.50;42.80;;;;;;6128785;28;81536;-61
2023/04/12 14:35:01;;;;;;;4.88;2.83;;;22.60;43.10;;;;;;6132255;28;80376;-62
2023/04/12 14:38:03;;;;;;;4.95;2.85;;;22.70;43.20;;;;;;6130380;28;80452;-65
2023/04/12 14:41:04;;;;;;;5.32;3.15;;;22.70;43.40;;;;;;6128905;28;85839;-63
2023/04/12 14:44:04;;;;;;;5.45;2.97;;;22.80;43.50;;;;;;6127104;28;84992;-64
2023/04/12 14:47:05;;;;;;;5.30;3.08;;;22.80;43.70;;;;;;6129869;28;80628;-61
2023/04/12 14:50:05;;;;;;;6.45;3.10;;;22.90;44.20;;;;;;6152361;28;80162;-62
2023/04/12 14:53:08;;;;;;;3.45;2.67;;;22.90;44.30;;;;;;6150149;28;83308;-63
2023/04/12 14:56:08;;;;;;;6.60;3.05;;;23.00;44.30;;;;;;6152644;28;80433;-64
2023/04/12 14:59:09;;;;;;;9.02;2.88;;;23.00;44.30;;;;;;6151870;28;81509;-63
2023/04/12 15:02:10;;;;;;;10.10;4.03;;;23.10;44.40;;;;;;6138354;28;86419;-66
2023/04/12 15:05:10;;;;;;;7.47;3.95;;;23.10;44.50;;;;;;6152250;28;80561;-66
2023/04/12 15:08:11;;;;;;;6.22;3.20;;;23.10;44.70;;;;;;6153426;28;80676;-65
2023/04/12 15:11:11;;;;;;;9.25;3.33;;;23.20;44.70;;;;;;6153689;28;80341;-65
2023/04/12 15:14:16;;;;;;;5.43;3.50;;;23.10;44.20;;;;;;6153771;28;82437;-62
2023/04/12 15:17:17;;;;;;;11.70;4.43;;;23.10;44.10;;;;;;6152095;28;83178;-62
2023/04/12 15:20:17;;;;;;;6.32;3.53;;;23.10;44.20;;;;;;6152845;28;81767;-66
2023/04/12 15:23:18;;;;;;;8.30;3.80;;;23.10;43.90;;;;;;6153716;28;82429;-63
2023/04/12 15:26:18;;;;;;;11.77;4.00;;;23.00;43.70;;;;;;6153899;28;80453;-63
2023/04/12 15:29:20;;;;;;;9.07;3.47;;;23.00;43.70;;;;;;6144190;28;80955;-62
2023/04/12 15:32:21;;;;;;;5.72;3.83;;;23.00;43.30;;;;;;6145957;28;80415;-71
2023/04/12 15:35:22;;;;;;;7.78;3.85;;;23.00;43.50;;;;;;6133729;28;83185;-62
2023/04/12 15:38:23;;;;;;;8.82;3.97;;;23.00;43.50;;;;;;6147546;28;80888;-63
2023/04/12 15:41:23;;;;;;;11.55;3.90;;;23.00;43.40;;;;;;6148004;28;80494;-64